Great Missenden, United Kingdom
Current Conditions -  °F | °C
As of 8:50 AM on Monday 20 Oct 2014 (Local Time) from EGWU Reporting Station
Few Clouds Few Clouds  
Wind Chill: 55°   Ceiling: Unl
Heat Index: 55°   Visibility: 6mi
Dew Point: 50°   Wind: 9mph
Humidity: 82%   Direction: 250°WSW
Pressure: 30.03"   Gusts: NA
Location:  51.7°N, 0.71°W
Report Text: EGWU 200750Z 25008KT 9999 FEW015 13/10 Q1017 BLU TEMPO SCT018 WHT
Loading
Personal Weather Stations






























Interactive Weather Map
Tropical Storm Tracking
New forecast layout! Learn more

10-Day Weather Forecast

Advertisements
Track Severe Weather on mobile